createdAt,value
2019-04-22T00:01:16.388Z,101180.95
2019-04-22T00:03:49.737Z,101172.53
2019-04-22T00:06:34.147Z,101171.19
2019-04-22T00:09:03.555Z,101170.75
2019-04-22T00:11:43.338Z,101172.94
2019-04-22T00:14:01.289Z,101170.30
2019-04-22T00:16:46.939Z,101172.94
2019-04-22T00:19:19.339Z,101168.94
2019-04-22T00:21:43.213Z,101166.28
2019-04-22T00:24:10.653Z,101168.05
2019-04-22T00:26:45.527Z,101171.56
2019-04-22T00:29:34.498Z,101168.02
2019-04-22T00:32:04.972Z,101161.81
2019-04-22T00:34:43.990Z,101160.47
2019-04-22T00:37:17.224Z,101156.91
2019-04-22T00:39:46.528Z,101161.78
2019-04-22T00:42:17.257Z,101163.08
2019-04-22T00:44:46.644Z,101154.22
2019-04-22T00:47:24.957Z,101152.88
2019-04-22T00:52:16.603Z,101156.39
2019-04-22T00:54:55.781Z,101157.69
2019-04-22T00:57:26.300Z,101155.92
2019-04-22T00:59:54.892Z,101153.72
2019-04-22T01:04:59.571Z,101149.25
2019-04-22T01:07:27.103Z,101160.31
2019-04-22T01:09:58.633Z,101158.09
2019-04-22T01:12:26.445Z,101154.09
2019-04-22T01:14:57.362Z,101149.22
2019-04-22T01:17:29.201Z,101147.00
2019-04-22T01:20:13.927Z,101147.39
2019-04-22T01:22:30.333Z,101152.22
2019-04-22T01:27:22.114Z,101140.63
2019-04-22T01:29:48.945Z,101138.41
2019-04-22T01:32:15.373Z,101139.73
2019-04-22T01:34:52.586Z,101139.72
2019-04-22T01:37:32.886Z,101137.48
2019-04-22T01:40:09.686Z,101141.87
2019-04-22T01:42:39.449Z,101132.59
2019-04-22T01:45:06.698Z,101129.02
2019-04-22T01:47:43.982Z,101131.23
2019-04-22T01:50:16.504Z,101131.20
2019-04-22T01:52:47.217Z,101130.31
2019-04-22T01:55:17.459Z,101129.42
2019-04-22T01:57:45.650Z,101127.17
2019-04-22T02:00:05.240Z,101125.84
2019-04-22T02:02:42.838Z,101117.88
2019-04-22T02:05:17.718Z,101123.19
2019-04-22T02:08:04.426Z,101119.61
2019-04-22T02:10:20.138Z,101113.86
2019-04-22T02:12:45.680Z,101110.30
2019-04-22T02:15:16.741Z,101105.83
2019-04-22T02:17:57.942Z,101113.80
2019-04-22T02:20:23.201Z,101104.94
2019-04-22T02:23:45.446Z,101107.11
2019-04-22T02:26:09.359Z,101109.73
2019-04-22T02:34:11.374Z,101103.45
2019-04-22T02:56:27.262Z,101084.10
2019-04-22T03:06:36.763Z,101070.19
2019-04-22T03:09:00.486Z,101062.65
2019-04-22T03:11:25.305Z,101063.05
2019-04-22T03:14:01.377Z,101063.00
2019-04-22T03:16:31.953Z,101065.64
2019-04-22T03:21:27.975Z,101055.84
2019-04-22T03:24:06.037Z,101055.82
2019-04-22T03:26:43.818Z,101054.91
2019-04-22T03:39:38.052Z,101056.91
2019-04-22T03:47:11.330Z,101059.91
2019-04-22T03:49:37.162Z,101061.18
2019-04-22T03:52:11.217Z,101062.48
2019-04-22T03:54:39.956Z,101057.13
2019-04-22T03:59:47.716Z,101068.08
2019-04-22T04:04:36.823Z,101058.73
2019-04-22T04:09:38.584Z,101060.46
2019-04-22T04:12:18.248Z,101059.14
2019-04-22T04:14:47.183Z,101054.25
2019-04-22T04:17:08.885Z,101052.02
2019-04-22T04:22:21.363Z,101059.42
2019-04-22T04:24:55.895Z,101065.98
2019-04-22T04:35:07.170Z,101064.55
2019-04-22T04:39:59.813Z,101062.31
2019-04-22T04:47:39.107Z,101066.74
2019-04-22T04:49:52.932Z,101077.77
2019-04-22T04:52:39.110Z,101073.36
2019-04-22T04:55:17.573Z,101073.38
2019-04-22T05:00:22.098Z,101072.94
2019-04-22T05:02:35.198Z,101070.29
2019-04-22T05:05:06.281Z,101074.28
2019-04-22T05:07:44.213Z,101076.08
2019-04-22T05:10:03.820Z,101076.09
2019-04-22T05:14:55.085Z,101073.06
2019-04-22T05:20:08.461Z,101066.05
2019-04-22T05:22:28.363Z,101068.30
2019-04-22T05:24:58.369Z,101071.44
2019-04-22T05:30:23.358Z,101077.27
2019-04-22T05:32:31.031Z,101071.13
2019-04-22T05:35:03.494Z,101076.05
2019-04-22T05:40:14.016Z,101084.55
2019-04-22T05:42:43.898Z,101078.41
2019-04-22T05:45:04.587Z,101081.99
2019-04-22T05:47:35.537Z,101087.36
2019-04-22T05:50:02.241Z,101073.33
2019-04-22T05:52:34.421Z,101075.15
2019-04-22T05:55:08.198Z,101069.45
2019-04-22T05:57:34.420Z,101069.95
2019-04-22T06:00:08.266Z,101069.55
2019-04-22T06:02:47.369Z,101068.70
2019-04-22T06:05:11.734Z,101065.23
2019-04-22T06:07:41.056Z,101062.61
2019-04-22T06:12:40.545Z,101069.77
2019-04-22T06:15:12.209Z,101064.98
2019-04-22T06:17:54.789Z,101066.36
2019-04-22T06:20:15.930Z,101063.31
2019-04-22T06:22:50.771Z,101062.47
2019-04-22T06:25:27.589Z,101062.94
2019-04-22T06:30:24.320Z,101065.70
2019-04-22T06:32:53.400Z,101065.73
2019-04-22T06:35:29.758Z,101059.63
2019-04-22T06:38:18.882Z,101061.85
2019-04-22T06:40:29.718Z,101058.39
2019-04-22T06:42:57.927Z,101054.03
2019-04-22T06:45:26.322Z,101054.06
2019-04-22T06:50:30.268Z,101053.73
2019-04-22T06:53:06.791Z,101050.70
2019-04-22T06:57:58.211Z,101042.38
2019-04-22T07:00:30.783Z,101045.09
2019-04-22T07:05:32.868Z,101043.84
2019-04-22T07:08:18.286Z,101047.00
2019-04-22T07:13:13.289Z,101046.16
2019-04-22T07:15:46.546Z,101047.97
2019-04-22T07:18:11.199Z,101039.56
2019-04-22T07:20:38.634Z,101043.11
2019-04-22T07:23:13.811Z,101044.02
2019-04-22T07:25:41.234Z,101042.69
2019-04-22T07:28:11.280Z,101041.34
2019-04-22T07:30:41.098Z,101045.31
2019-04-22T07:38:17.656Z,101037.27
2019-04-22T07:40:51.827Z,101034.97
2019-04-22T07:43:20.169Z,101037.14
2019-04-22T07:45:49.268Z,101039.27
2019-04-22T07:48:26.178Z,101027.21
2019-04-22T07:50:58.334Z,101034.23
2019-04-22T07:53:19.840Z,101032.80
2019-04-22T07:55:55.440Z,101030.08
2019-04-22T07:58:25.730Z,101029.52
2019-04-22T08:00:55.932Z,101026.30
2019-04-22T08:03:44.334Z,101027.11
2019-04-22T08:08:25.834Z,101024.17
2019-04-22T08:10:57.918Z,101023.13
2019-04-22T08:13:30.843Z,101024.27
2019-04-22T08:15:58.179Z,101015.61
2019-04-22T08:18:28.373Z,101018.06
2019-04-22T08:21:03.184Z,101017.94
2019-04-22T08:23:31.843Z,101019.04
2019-04-22T08:26:00.818Z,101017.52
2019-04-22T08:31:10.366Z,101013.41
2019-04-22T08:33:41.180Z,101023.36
2019-04-22T08:36:11.942Z,101019.08
2019-04-22T08:38:39.393Z,101018.88
2019-04-22T08:41:23.004Z,101018.12
2019-04-22T08:43:56.491Z,101018.33
2019-04-22T08:46:23.587Z,101014.06
2019-04-22T08:48:52.794Z,101013.78
2019-04-22T08:51:21.041Z,101011.80
2019-04-22T08:53:56.246Z,101014.27
2019-04-22T08:56:29.358Z,101011.34
2019-04-22T08:58:59.947Z,101006.27
2019-04-22T09:01:23.818Z,101003.33
2019-04-22T09:03:56.950Z,101009.41
2019-04-22T09:06:39.889Z,100997.98
2019-04-22T09:08:55.227Z,101001.80
2019-04-22T09:11:27.043Z,100995.29
2019-04-22T09:13:55.102Z,100998.12
2019-04-22T09:16:32.733Z,100987.58
2019-04-22T09:19:02.599Z,100991.36
2019-04-22T09:26:30.359Z,100991.88
2019-04-22T09:29:10.113Z,100992.36
2019-04-22T09:31:30.436Z,100990.69
2019-04-22T09:33:59.336Z,100980.05
2019-04-22T09:36:33.996Z,100977.91
2019-04-22T09:39:01.102Z,100982.28
2019-04-22T09:44:02.886Z,100978.53
2019-04-22T09:49:12.241Z,100973.71
2019-04-22T09:51:41.449Z,100971.96
2019-04-22T09:54:20.085Z,100969.33
2019-04-22T09:59:08.810Z,100968.86
2019-04-22T10:02:04.084Z,100965.50
2019-04-22T10:04:14.291Z,100970.16
2019-04-22T10:06:36.901Z,100964.16
2019-04-22T10:09:44.282Z,100962.28
2019-04-22T10:11:47.685Z,100960.83
2019-04-22T10:19:18.694Z,100948.52
2019-04-22T10:21:52.665Z,100953.16
2019-04-22T10:24:13.952Z,100948.33
2019-04-22T10:29:20.439Z,100935.47
2019-04-22T10:31:52.778Z,100939.61
2019-04-22T10:34:08.269Z,100934.98
2019-04-22T10:36:27.794Z,100928.95
2019-04-22T10:38:58.030Z,100916.23
2019-04-22T10:41:28.435Z,100932.45
2019-04-22T10:43:59.184Z,100930.30
2019-04-22T10:46:28.501Z,100924.59
2019-04-22T10:48:58.064Z,100921.51
2019-04-22T10:51:28.538Z,100920.38
2019-04-22T10:53:57.762Z,100921.34
2019-04-22T10:56:27.344Z,100918.00
2019-04-22T10:58:56.392Z,100912.49
2019-04-22T11:01:25.712Z,100911.02
2019-04-22T11:03:55.201Z,100909.14
2019-04-22T11:06:25.384Z,100906.15
2019-04-22T11:09:00.965Z,100902.25
2019-04-22T11:11:34.678Z,100902.34
2019-04-22T11:13:56.199Z,100892.20
2019-04-22T11:16:25.727Z,100897.30
2019-04-22T11:18:55.852Z,100894.20
2019-04-22T11:21:25.387Z,100896.71
2019-04-22T11:23:54.677Z,100897.78
2019-04-22T11:26:23.972Z,100884.58
2019-04-22T11:28:53.984Z,100890.10
2019-04-22T11:31:24.113Z,100882.94
2019-04-22T11:33:54.420Z,100879.49
2019-04-22T11:36:25.641Z,100881.73
2019-04-22T11:39:00.362Z,100870.25
2019-04-22T11:41:25.663Z,100871.30
2019-04-22T11:43:54.752Z,100868.44
2019-04-22T11:46:25.308Z,100867.58
2019-04-22T11:48:55.925Z,100858.91
2019-04-22T11:51:25.080Z,100861.61
2019-04-22T11:53:54.766Z,100862.51
2019-04-22T11:56:25.260Z,100854.33
2019-04-22T11:58:55.182Z,100852.70
2019-04-22T12:01:24.701Z,100851.75
2019-04-22T12:03:53.947Z,100846.28
2019-04-22T12:06:24.005Z,100841.82
2019-04-22T12:08:54.159Z,100839.38
2019-04-22T12:11:23.395Z,100833.63
2019-04-22T12:13:53.816Z,100837.61
2019-04-22T12:16:23.378Z,100828.89
2019-04-22T12:18:53.517Z,100820.80
2019-04-22T12:21:23.410Z,100826.36
2019-04-22T12:23:52.902Z,100825.22
2019-04-22T12:26:24.686Z,100817.14
2019-04-22T12:28:53.291Z,100810.86
2019-04-22T12:31:23.677Z,100815.90
2019-04-22T12:33:53.113Z,100816.36
2019-04-22T12:36:22.635Z,100793.34
2019-04-22T12:38:51.781Z,100810.94
2019-04-22T12:41:21.618Z,100798.94
2019-04-22T12:43:51.500Z,100797.91
2019-04-22T12:46:20.621Z,100798.80
2019-04-22T12:48:49.915Z,100783.84
2019-04-22T12:51:19.099Z,100786.72
2019-04-22T12:53:48.846Z,100790.33
2019-04-22T12:56:19.386Z,100784.53
2019-04-22T12:58:49.873Z,100784.98
2019-04-22T13:01:19.104Z,100778.20
2019-04-22T13:03:48.229Z,100777.75
2019-04-22T13:06:17.647Z,100774.55
2019-04-22T13:08:47.662Z,100766.02
2019-04-22T13:11:20.217Z,100769.02
2019-04-22T13:13:49.153Z,100763.02
2019-04-22T13:16:18.480Z,100759.02
2019-04-22T13:18:53.850Z,100761.83
2019-04-22T13:21:18.638Z,100762.29
2019-04-22T13:23:48.871Z,100760.23
2019-04-22T13:26:18.978Z,100755.80
2019-04-22T13:28:49.238Z,100754.64
2019-04-22T13:31:20.727Z,100747.04
2019-04-22T13:33:52.778Z,100746.20
2019-04-22T13:36:22.723Z,100733.61
2019-04-22T13:38:51.294Z,100736.20
2019-04-22T13:41:31.172Z,100740.32
2019-04-22T13:43:51.095Z,100740.61
2019-04-22T13:46:20.161Z,100724.03
2019-04-22T13:49:14.846Z,100730.59
2019-04-22T13:56:45.101Z,100722.71
2019-04-22T13:59:04.589Z,100713.51
2019-04-22T14:01:28.441Z,100715.44
2019-04-22T14:04:07.084Z,100714.00
2019-04-22T14:06:36.657Z,100711.53
2019-04-22T14:09:09.412Z,100709.48
2019-04-22T14:11:48.888Z,100710.52
2019-04-22T14:14:09.341Z,100701.65
2019-04-22T14:16:38.405Z,100700.41
2019-04-22T14:19:07.924Z,100698.16
2019-04-22T14:21:37.042Z,100693.28
2019-04-22T14:24:07.310Z,100696.77
2019-04-22T14:26:52.045Z,100682.52
2019-04-22T14:29:08.137Z,100684.44
2019-04-22T14:31:38.332Z,100687.94
2019-04-22T14:34:09.568Z,100684.94
2019-04-22T14:36:39.288Z,100687.02
2019-04-22T14:39:10.286Z,100677.99
2019-04-22T14:41:55.330Z,100686.78
2019-04-22T14:47:09.062Z,100673.34
2019-04-22T14:49:40.237Z,100671.06
2019-04-22T14:52:10.649Z,100668.47
2019-04-22T14:54:26.557Z,100663.87
2019-04-22T14:56:44.627Z,100657.67
2019-04-22T14:59:13.758Z,100670.06
2019-04-22T15:01:43.536Z,100654.95
2019-04-22T15:04:13.319Z,100650.48
2019-04-22T15:06:45.155Z,100648.84
2019-04-22T15:09:14.395Z,100649.02
2019-04-22T15:11:57.013Z,100649.28
2019-04-22T15:14:15.204Z,100642.19
2019-04-22T15:17:02.651Z,100635.91
2019-04-22T15:19:37.940Z,100640.09
2019-04-22T15:22:08.428Z,100630.42
2019-04-22T15:24:38.780Z,100637.25
2019-04-22T15:27:08.735Z,100627.42
2019-04-22T15:29:39.078Z,100642.11
2019-04-22T15:32:09.350Z,100646.63
2019-04-22T15:34:39.476Z,100631.27
2019-04-22T15:37:08.764Z,100636.73
2019-04-22T15:39:37.822Z,100633.23
2019-04-22T15:42:14.555Z,100632.53
2019-04-22T15:44:37.717Z,100639.09
2019-04-22T15:47:07.044Z,100642.56
2019-04-22T15:49:36.137Z,100634.89
2019-04-22T15:52:06.633Z,100645.83
2019-04-22T15:54:37.418Z,100632.70
2019-04-22T15:57:06.791Z,100635.28
2019-04-22T15:59:53.745Z,100633.56
2019-04-22T16:02:08.311Z,100634.83
2019-04-22T16:04:38.792Z,100637.88
2019-04-22T16:07:08.620Z,100640.03
2019-04-22T16:09:39.346Z,100631.19
2019-04-22T16:12:16.144Z,100647.34
2019-04-22T16:14:43.829Z,100635.11
2019-04-22T16:17:10.597Z,100635.25
2019-04-22T16:19:41.064Z,100636.67
2019-04-22T16:22:16.905Z,100634.53
2019-04-22T16:25:02.039Z,100635.83
2019-04-22T16:27:32.069Z,100626.91
2019-04-22T16:30:01.488Z,100638.48
2019-04-22T16:32:31.923Z,100639.01
2019-04-22T16:35:01.082Z,100630.01
2019-04-22T16:37:30.596Z,100629.52
2019-04-22T16:40:00.837Z,100638.69
2019-04-22T16:42:37.715Z,100619.55
2019-04-22T16:45:01.873Z,100628.89
2019-04-22T16:47:31.393Z,100626.41
2019-04-22T16:50:01.756Z,100625.02
2019-04-22T16:52:32.212Z,100628.50
2019-04-22T16:55:01.379Z,100627.28
2019-04-22T16:57:30.477Z,100635.19
2019-04-22T17:00:00.478Z,100635.21
2019-04-22T17:02:58.654Z,100626.48
2019-04-22T17:05:45.693Z,100634.10
2019-04-22T17:08:16.338Z,100626.97
2019-04-22T17:10:46.030Z,100641.64
2019-04-22T17:13:20.691Z,100639.16
2019-04-22T17:15:47.253Z,100638.43
2019-04-22T17:18:17.197Z,100643.69
2019-04-22T17:20:46.588Z,100645.70
2019-04-22T17:23:15.925Z,100643.74
2019-04-22T17:25:45.173Z,100643.42
2019-04-22T17:28:15.393Z,100658.80
2019-04-22T17:30:45.715Z,100657.13
2019-04-22T17:33:14.854Z,100656.42
2019-04-22T17:35:46.671Z,100653.86
2019-04-22T17:38:23.568Z,100655.03
2019-04-22T17:41:02.580Z,100661.36
2019-04-22T17:43:52.292Z,100664.66
2019-04-22T17:46:12.065Z,100664.27
2019-04-22T17:48:53.358Z,100668.53
2019-04-22T17:51:29.895Z,100675.80
2019-04-22T17:53:59.896Z,100665.70
2019-04-22T17:56:28.227Z,100665.08
2019-04-22T17:58:57.139Z,100674.38
2019-04-22T18:01:25.491Z,100682.19
2019-04-22T18:03:42.395Z,100686.37
2019-04-22T18:06:17.554Z,100692.09
2019-04-22T18:08:59.049Z,100690.48
2019-04-22T18:11:37.786Z,100680.87
2019-04-22T18:14:16.165Z,100689.62
2019-04-22T18:16:30.540Z,100695.42
2019-04-22T18:19:00.563Z,100693.64
2019-04-22T18:21:26.346Z,100689.34
2019-04-22T18:23:52.849Z,100697.06
2019-04-22T18:26:33.444Z,100689.04
2019-04-22T18:29:05.725Z,100688.20
2019-04-22T18:31:26.884Z,100685.77
2019-04-22T18:34:00.674Z,100685.45
2019-04-22T18:36:36.029Z,100692.23
2019-04-22T18:39:12.898Z,100689.77
2019-04-22T18:41:36.499Z,100688.33
2019-04-22T18:44:09.635Z,100692.44
2019-04-22T18:46:36.548Z,100691.16
2019-04-22T18:49:08.170Z,100692.58
2019-04-22T18:51:46.827Z,100701.53
2019-04-22T18:54:30.668Z,100688.65
2019-04-22T18:57:02.724Z,100693.59
2019-04-22T18:59:22.509Z,100688.80
2019-04-22T19:01:48.114Z,100693.27
2019-04-22T19:04:25.370Z,100691.55
2019-04-22T19:07:07.362Z,100696.08
2019-04-22T19:09:49.956Z,100694.35
2019-04-22T19:12:23.675Z,100691.32
2019-04-22T19:14:51.112Z,100698.44
2019-04-22T19:17:30.049Z,100694.98
2019-04-22T19:19:50.007Z,100690.64
2019-04-22T19:22:16.234Z,100699.22
2019-04-22T19:24:41.774Z,100689.89
2019-04-22T19:27:15.732Z,100703.38
2019-04-22T19:29:55.849Z,100689.66
2019-04-22T19:32:21.337Z,100690.69
2019-04-22T19:34:50.541Z,100695.61
2019-04-22T19:37:18.957Z,100698.77
2019-04-22T19:40:00.929Z,100697.48
2019-04-22T19:42:33.135Z,100703.38
2019-04-22T19:44:55.165Z,100701.22
2019-04-22T19:49:59.072Z,100693.92
2019-04-22T19:52:28.679Z,100701.08
2019-04-22T19:54:59.360Z,100703.31
2019-04-22T19:57:22.452Z,100704.22
2019-04-22T19:59:57.408Z,100699.85
2019-04-22T20:02:57.484Z,100698.96
2019-04-22T20:05:48.072Z,100699.50
2019-04-22T20:08:15.317Z,100699.09
2019-04-22T20:10:47.100Z,100696.44
2019-04-22T20:13:28.878Z,100693.77
2019-04-22T20:15:41.171Z,100692.92
2019-04-22T20:18:29.681Z,100691.17
2019-04-22T20:20:54.071Z,100684.52
2019-04-22T20:23:15.955Z,100680.08
2019-04-22T20:25:46.435Z,100683.25
2019-04-22T20:28:25.650Z,100683.73
2019-04-22T20:30:50.595Z,100682.44
2019-04-22T20:33:29.498Z,100666.52
2019-04-22T20:36:01.535Z,100667.87
2019-04-22T20:38:28.029Z,100667.94
2019-04-22T20:40:55.159Z,100663.07
2019-04-22T20:43:35.540Z,100666.18
2019-04-22T20:45:59.191Z,100661.30
2019-04-22T20:48:22.794Z,100658.64
2019-04-22T20:50:58.217Z,100662.19
2019-04-22T20:53:34.452Z,100659.53
2019-04-22T20:56:01.021Z,100653.34
2019-04-22T20:58:32.745Z,100646.72
2019-04-22T21:00:58.366Z,100639.69
2019-04-22T21:03:26.139Z,100642.38
2019-04-22T21:05:55.890Z,100639.73
2019-04-22T21:08:38.010Z,100635.34
2019-04-22T21:10:56.127Z,100633.68
2019-04-22T21:13:27.825Z,100628.39
2019-04-22T21:16:09.278Z,100626.64
2019-04-22T21:18:30.598Z,100624.94
2019-04-22T21:21:07.096Z,100620.11
2019-04-22T21:23:36.603Z,100621.48
2019-04-22T21:26:11.101Z,100622.86
2019-04-22T21:28:40.883Z,100618.88
2019-04-22T21:31:14.925Z,100613.59
2019-04-22T21:33:44.747Z,100609.62
2019-04-22T21:36:19.936Z,100606.95
2019-04-22T21:38:44.025Z,100602.52
2019-04-22T21:41:17.708Z,100599.84
2019-04-22T21:43:51.425Z,100594.98
2019-04-22T21:46:16.234Z,100602.53
2019-04-22T21:48:46.302Z,100593.22
2019-04-22T21:51:19.140Z,100596.83
2019-04-22T21:54:00.395Z,100591.52
2019-04-22T21:56:38.224Z,100587.53
2019-04-22T21:58:55.990Z,100581.34
2019-04-22T22:01:49.795Z,100581.40
2019-04-22T22:04:11.432Z,100578.79
2019-04-22T22:06:31.061Z,100573.95
2019-04-22T22:09:15.769Z,100570.48
2019-04-22T22:11:41.750Z,100566.98
2019-04-22T22:14:11.600Z,100559.95
2019-04-22T22:16:34.913Z,100563.52
2019-04-22T22:19:10.963Z,100559.55
2019-04-22T22:21:51.340Z,100557.83
2019-04-22T22:24:20.723Z,100555.20
2019-04-22T22:26:54.266Z,100550.37
2019-04-22T22:29:31.204Z,100543.73
2019-04-22T22:31:55.637Z,100544.66
2019-04-22T22:34:34.841Z,100540.25
2019-04-22T22:36:40.635Z,100539.42
2019-04-22T22:39:14.683Z,100541.70
2019-04-22T22:41:31.856Z,100539.53
2019-04-22T22:44:08.974Z,100537.77
2019-04-22T22:46:44.317Z,100535.59
2019-04-22T22:49:28.281Z,100531.19
2019-04-22T22:52:11.685Z,100534.26
2019-04-22T22:54:31.759Z,100534.30
2019-04-22T22:59:29.580Z,100533.88
2019-04-22T23:01:54.337Z,100528.58
2019-04-22T23:04:37.243Z,100527.27
2019-04-22T23:07:09.256Z,100531.73
2019-04-22T23:09:30.761Z,100520.69
2019-04-22T23:14:34.699Z,100520.28
2019-04-22T23:16:51.448Z,100512.77
2019-04-22T23:19:13.679Z,100515.89
2019-04-22T23:21:46.829Z,100508.80
2019-04-22T23:24:43.970Z,100511.45
2019-04-22T23:27:20.527Z,100512.38
2019-04-22T23:30:06.491Z,100514.20
2019-04-22T23:32:37.818Z,100508.47
2019-04-22T23:35:35.320Z,100507.98
2019-04-22T23:38:06.293Z,100502.72
2019-04-22T23:40:39.018Z,100505.87
2019-04-22T23:43:15.873Z,100500.50
2019-04-22T23:45:43.414Z,100497.43
2019-04-22T23:48:06.810Z,100487.66
2019-04-22T23:50:47.741Z,100491.24
2019-04-22T23:53:42.338Z,100483.19
2019-04-22T23:56:00.514Z,100483.61
2019-04-22T23:58:49.245Z,100475.16
